createdAt,value
2022-09-11T00:01:33.397Z,14.05
2022-09-11T00:04:00.517Z,14.05
2022-09-11T00:06:30.141Z,14.03
2022-09-11T00:09:01.396Z,14.03
2022-09-11T00:11:40.695Z,14.01
2022-09-11T00:14:10.393Z,14.01
2022-09-11T00:16:41.451Z,13.97
2022-09-11T00:19:13.991Z,13.93
2022-09-11T00:21:40.692Z,13.90
2022-09-11T00:24:10.731Z,13.88
2022-09-11T00:26:38.944Z,13.85
2022-09-11T00:29:05.682Z,13.84
2022-09-11T00:31:32.795Z,13.81
2022-09-11T00:34:00.130Z,13.78
2022-09-11T00:36:36.363Z,13.76
2022-09-11T00:39:03.689Z,13.73
2022-09-11T00:41:36.599Z,13.70
2022-09-11T00:44:08.997Z,13.67
2022-09-11T00:46:48.889Z,13.65
2022-09-11T00:49:21.178Z,13.64
2022-09-11T00:51:53.575Z,13.60
2022-09-11T00:54:29.045Z,13.54
2022-09-11T00:56:59.030Z,13.52
2022-09-11T00:59:28.079Z,13.50
2022-09-11T01:01:55.316Z,13.51
2022-09-11T01:04:23.448Z,13.49
2022-09-11T01:06:55.229Z,13.49
2022-09-11T01:09:22.604Z,13.48
2022-09-11T01:11:55.802Z,13.45
2022-09-11T01:14:45.802Z,13.42
2022-09-11T01:17:26.705Z,13.41
2022-09-11T01:20:27.349Z,13.37
2022-09-11T01:23:02.966Z,13.35
2022-09-11T01:26:23.554Z,13.36
2022-09-11T01:29:20.826Z,13.31
2022-09-11T01:32:16.677Z,13.29
2022-09-11T01:34:57.364Z,13.28
2022-09-11T01:37:50.264Z,13.27
2022-09-11T01:40:24.689Z,13.27
2022-09-11T01:42:59.674Z,13.26
2022-09-11T01:45:27.538Z,13.27
2022-09-11T01:47:55.861Z,13.26
2022-09-11T01:50:25.145Z,13.24
2022-09-11T01:52:58.333Z,13.22
2022-09-11T01:55:39.677Z,13.19
2022-09-11T01:58:09.670Z,13.18
2022-09-11T02:00:40.401Z,13.17
2022-09-11T02:03:31.484Z,13.14
2022-09-11T02:06:03.889Z,13.10
2022-09-11T02:08:36.329Z,13.09
2022-09-11T02:11:10.492Z,13.08
2022-09-11T02:13:46.031Z,13.05
2022-09-11T02:16:25.915Z,13.02
2022-09-11T02:19:05.109Z,13.01
2022-09-11T02:21:33.697Z,12.95
2022-09-11T02:24:01.897Z,12.94
2022-09-11T02:26:32.125Z,12.91
2022-09-11T02:28:59.390Z,12.91
2022-09-11T02:31:26.436Z,12.90
2022-09-11T02:33:53.200Z,12.87
2022-09-11T02:36:31.968Z,12.84
2022-09-11T02:39:13.488Z,12.83
2022-09-11T02:42:07.333Z,12.81
2022-09-11T02:44:38.936Z,12.77
2022-09-11T02:47:11.241Z,12.70
2022-09-11T02:49:59.630Z,12.68
2022-09-11T02:52:43.063Z,12.66
2022-09-11T02:55:41.815Z,12.65
2022-09-11T02:58:33.334Z,12.64
2022-09-11T03:01:04.516Z,12.61
2022-09-11T03:03:44.568Z,12.67
2022-09-11T03:06:17.183Z,12.68
2022-09-11T03:08:44.672Z,12.68
2022-09-11T03:11:11.473Z,12.66
2022-09-11T03:13:38.312Z,12.64
2022-09-11T03:16:05.734Z,12.64
2022-09-11T03:18:33.260Z,12.61
2022-09-11T03:21:01.239Z,12.59
2022-09-11T03:23:28.303Z,12.58
2022-09-11T03:25:55.711Z,12.54
2022-09-11T03:28:22.968Z,12.52
2022-09-11T03:30:50.595Z,12.50
2022-09-11T03:33:17.377Z,12.45
2022-09-11T03:35:44.863Z,12.45
2022-09-11T03:38:12.662Z,12.42
2022-09-11T03:40:41.931Z,12.42
2022-09-11T03:43:09.553Z,12.39
2022-09-11T03:45:36.400Z,12.37
2022-09-11T03:48:03.277Z,12.36
2022-09-11T03:50:30.156Z,12.32
2022-09-11T03:52:58.193Z,12.30
2022-09-11T03:55:24.934Z,12.29
2022-09-11T03:57:51.664Z,12.28
2022-09-11T04:00:18.495Z,12.27
2022-09-11T04:02:45.285Z,12.28
2022-09-11T04:05:12.010Z,12.25
2022-09-11T04:07:38.852Z,12.19
2022-09-11T04:10:06.925Z,12.16
2022-09-11T04:12:33.924Z,12.14
2022-09-11T04:15:02.351Z,12.10
2022-09-11T04:17:31.966Z,12.08
2022-09-11T04:19:58.660Z,12.07
2022-09-11T04:22:26.347Z,12.07
2022-09-11T04:24:53.156Z,12.04
2022-09-11T04:27:23.578Z,11.98
2022-09-11T04:29:50.579Z,11.95
2022-09-11T04:32:17.268Z,11.93
2022-09-11T04:34:44.017Z,11.91
2022-09-11T04:37:11.783Z,11.91
2022-09-11T04:39:38.568Z,11.92
2022-09-11T04:42:05.511Z,11.91
2022-09-11T04:44:32.787Z,11.90
2022-09-11T04:46:59.807Z,11.87
2022-09-11T04:49:26.755Z,11.85
2022-09-11T04:51:55.068Z,11.82
2022-09-11T04:54:21.870Z,11.82
2022-09-11T04:56:49.135Z,11.81
2022-09-11T04:59:22.581Z,11.78
2022-09-11T05:01:49.587Z,11.77
2022-09-11T05:04:22.915Z,11.76
2022-09-11T05:06:52.350Z,11.76
2022-09-11T05:09:19.551Z,11.75
2022-09-11T05:11:46.771Z,11.77
2022-09-11T05:14:13.524Z,11.79
2022-09-11T05:16:40.578Z,11.79
2022-09-11T05:19:07.413Z,11.82
2022-09-11T05:21:34.736Z,11.81
2022-09-11T05:24:02.538Z,11.82
2022-09-11T05:26:32.145Z,11.83
2022-09-11T05:29:15.941Z,11.80
2022-09-11T05:31:43.211Z,11.81
2022-09-11T05:34:09.990Z,11.83
2022-09-11T05:36:37.180Z,11.87
2022-09-11T05:39:05.483Z,11.91
2022-09-11T05:41:32.318Z,11.92
2022-09-11T05:43:59.407Z,11.94
2022-09-11T05:46:26.166Z,11.96
2022-09-11T05:48:53.716Z,11.97
2022-09-11T05:51:21.835Z,12.03
2022-09-11T05:53:53.121Z,12.06
2022-09-11T05:56:22.750Z,12.10
2022-09-11T05:58:51.948Z,12.16
2022-09-11T06:01:21.461Z,12.20
2022-09-11T06:03:49.683Z,12.27
2022-09-11T06:06:18.755Z,12.30
2022-09-11T06:08:47.565Z,12.35
2022-09-11T06:11:16.955Z,12.38
2022-09-11T06:13:46.587Z,12.42
2022-09-11T06:16:19.056Z,12.43
2022-09-11T06:18:50.347Z,12.47
2022-09-11T06:21:23.348Z,12.52
2022-09-11T06:23:52.128Z,12.56
2022-09-11T06:26:21.938Z,12.61
2022-09-11T06:28:48.919Z,12.68
2022-09-11T06:31:18.679Z,12.76
2022-09-11T06:33:46.975Z,12.85
2022-09-11T06:36:17.503Z,12.91
2022-09-11T06:38:44.667Z,12.98
2022-09-11T06:41:14.383Z,13.06
2022-09-11T06:43:42.554Z,13.13
2022-09-11T06:46:15.062Z,13.17
2022-09-11T06:48:44.248Z,13.22
2022-09-11T06:51:13.108Z,13.35
2022-09-11T06:53:41.418Z,13.46
2022-09-11T06:56:12.955Z,13.52
2022-09-11T06:58:41.317Z,13.63
2022-09-11T07:01:11.817Z,13.71
2022-09-11T07:03:42.049Z,13.82
2022-09-11T07:06:08.867Z,13.94
2022-09-11T07:08:35.706Z,14.02
2022-09-11T07:11:04.916Z,14.10
2022-09-11T07:13:37.151Z,14.21
2022-09-11T07:16:09.872Z,14.32
2022-09-11T07:18:45.609Z,14.45
2022-09-11T07:21:14.001Z,14.56
2022-09-11T07:23:42.383Z,14.67
2022-09-11T07:26:13.041Z,14.76
2022-09-11T07:28:40.469Z,14.83
2022-09-11T07:31:16.281Z,14.94
2022-09-11T07:33:48.236Z,15.04
2022-09-11T07:36:17.725Z,15.09
2022-09-11T07:38:47.144Z,15.18
2022-09-11T07:41:15.689Z,15.29
2022-09-11T07:43:45.617Z,15.38
2022-09-11T07:46:13.663Z,15.48
2022-09-11T07:48:42.957Z,15.57
2022-09-11T07:51:13.046Z,15.76
2022-09-11T07:53:46.264Z,15.83
2022-09-11T07:56:19.007Z,15.84
2022-09-11T07:58:46.272Z,15.90
2022-09-11T08:01:16.275Z,15.96
2022-09-11T08:03:44.174Z,16.07
2022-09-11T08:06:16.837Z,16.24
2022-09-11T08:08:46.212Z,16.48
2022-09-11T08:11:18.237Z,16.61
2022-09-11T08:13:50.966Z,16.63
2022-09-11T08:16:19.593Z,16.72
2022-09-11T08:18:46.807Z,17.04
2022-09-11T08:21:14.231Z,17.25
2022-09-11T08:23:42.851Z,17.42
2022-09-11T08:26:12.045Z,17.64
2022-09-11T08:28:41.368Z,17.92
2022-09-11T08:31:08.261Z,18.11
2022-09-11T08:33:35.404Z,18.21
2022-09-11T08:36:05.231Z,18.22
2022-09-11T08:38:33.608Z,18.31
2022-09-11T08:41:13.014Z,18.51
2022-09-11T08:43:50.976Z,18.70
2022-09-11T08:46:21.478Z,18.82
2022-09-11T08:49:00.707Z,18.93
2022-09-11T08:51:27.794Z,18.92
2022-09-11T08:53:57.151Z,19.05
2022-09-11T08:56:29.389Z,19.30
2022-09-11T08:59:18.895Z,19.52
2022-09-11T09:02:07.050Z,19.75
2022-09-11T09:04:59.465Z,20.03
2022-09-11T09:07:26.174Z,20.22
2022-09-11T09:10:14.035Z,20.35
2022-09-11T09:12:47.257Z,20.42
2022-09-11T09:15:29.318Z,20.52
2022-09-11T09:18:05.447Z,20.31
2022-09-11T09:20:43.670Z,20.10
2022-09-11T09:23:19.948Z,20.41
2022-09-11T09:25:48.309Z,20.78
2022-09-11T09:28:25.529Z,20.92
2022-09-11T09:31:02.939Z,20.83
2022-09-11T09:33:35.454Z,20.77
2022-09-11T09:36:11.312Z,20.98
2022-09-11T09:38:38.185Z,21.23
2022-09-11T09:41:33.280Z,21.27
2022-09-11T09:44:28.047Z,21.27
2022-09-11T09:46:56.176Z,21.46
2022-09-11T09:49:29.837Z,21.75
2022-09-11T09:52:03.587Z,21.89
2022-09-11T09:54:36.652Z,21.72
2022-09-11T09:57:10.633Z,21.83
2022-09-11T09:59:45.864Z,21.60
2022-09-11T10:02:12.734Z,21.41
2022-09-11T10:04:39.483Z,21.14
2022-09-11T10:07:11.477Z,20.91
2022-09-11T10:09:47.091Z,20.64
2022-09-11T10:12:26.690Z,20.87
2022-09-11T10:14:55.999Z,21.25
2022-09-11T10:17:31.395Z,21.72
2022-09-11T10:20:19.378Z,21.81
2022-09-11T10:22:46.787Z,21.98
2022-09-11T10:25:18.562Z,22.28
2022-09-11T10:28:11.528Z,22.67
2022-09-11T10:30:41.694Z,22.91
2022-09-11T10:33:49.515Z,23.13
2022-09-11T10:36:23.371Z,23.43
2022-09-11T10:38:50.542Z,23.48
2022-09-11T10:41:23.506Z,23.20
2022-09-11T10:44:00.639Z,23.17
2022-09-11T10:46:29.078Z,23.45
2022-09-11T10:48:55.780Z,23.63
2022-09-11T10:51:25.237Z,23.43
2022-09-11T10:54:19.675Z,23.05
2022-09-11T10:57:07.943Z,23.04
2022-09-11T10:59:41.012Z,23.34
2022-09-11T11:02:19.519Z,23.01
2022-09-11T11:04:47.583Z,23.15
2022-09-11T11:07:28.921Z,23.62
2022-09-11T11:10:59.258Z,23.70
2022-09-11T11:13:39.550Z,23.20
2022-09-11T11:16:40.185Z,23.69
2022-09-11T11:19:09.710Z,23.98
2022-09-11T11:21:45.584Z,24.34
2022-09-11T11:24:32.419Z,24.57
2022-09-11T11:27:17.726Z,24.22
2022-09-11T11:30:21.495Z,23.73
2022-09-11T11:33:00.007Z,23.55
2022-09-11T11:36:00.749Z,23.24
2022-09-11T11:38:36.700Z,23.04
2022-09-11T11:41:19.665Z,22.93
2022-09-11T11:43:50.022Z,22.76
2022-09-11T11:46:39.053Z,22.67
2022-09-11T11:49:13.588Z,22.58
2022-09-11T11:52:05.199Z,22.53
2022-09-11T11:54:46.735Z,22.43
2022-09-11T11:57:21.011Z,22.30
2022-09-11T11:59:59.550Z,22.30
2022-09-11T12:02:43.373Z,22.19
2022-09-11T12:05:24.258Z,22.09
2022-09-11T12:07:51.861Z,22.02
2022-09-11T12:10:22.951Z,22.03
2022-09-11T12:13:15.526Z,22.38
2022-09-11T12:16:13.333Z,22.48
2022-09-11T12:18:42.536Z,22.42
2022-09-11T12:21:42.838Z,22.32
2022-09-11T12:24:13.232Z,22.30
2022-09-11T12:26:40.071Z,22.25
2022-09-11T12:29:16.063Z,22.40
2022-09-11T12:31:52.145Z,22.56
2022-09-11T12:34:24.410Z,22.74
2022-09-11T12:37:02.453Z,22.83
2022-09-11T12:39:45.937Z,22.78
2022-09-11T12:42:23.202Z,22.56
2022-09-11T12:44:49.891Z,22.41
2022-09-11T12:47:43.207Z,22.49
2022-09-11T12:50:12.877Z,23.08
2022-09-11T12:52:45.599Z,23.49
2022-09-11T12:55:33.733Z,23.81
2022-09-11T12:58:04.319Z,23.98
2022-09-11T13:00:40.883Z,24.13
2022-09-11T13:03:17.953Z,24.08
2022-09-11T13:06:03.351Z,23.98
2022-09-11T13:08:34.789Z,24.20
2022-09-11T13:11:43.047Z,24.35
2022-09-11T13:14:28.275Z,23.99
2022-09-11T13:16:56.405Z,23.84
2022-09-11T13:19:23.779Z,23.76
2022-09-11T13:21:52.414Z,23.80
2022-09-11T13:24:35.937Z,24.08
2022-09-11T13:27:08.785Z,23.80
2022-09-11T13:29:38.700Z,23.80
2022-09-11T13:32:13.824Z,23.75
2022-09-11T13:34:46.387Z,23.41
2022-09-11T13:37:23.795Z,23.36
2022-09-11T13:39:50.629Z,23.60
2022-09-11T13:42:23.381Z,23.87
2022-09-11T13:44:55.993Z,24.15
2022-09-11T13:47:28.478Z,24.31
2022-09-11T13:50:02.155Z,24.48
2022-09-11T13:52:32.460Z,24.55
2022-09-11T13:55:04.627Z,24.58
2022-09-11T13:57:32.245Z,24.55
2022-09-11T14:00:00.557Z,24.48
2022-09-11T14:02:44.619Z,24.51
2022-09-11T14:05:16.170Z,24.47
2022-09-11T14:07:52.040Z,24.44
2022-09-11T14:10:26.904Z,24.38
2022-09-11T14:12:59.003Z,24.44
2022-09-11T14:15:35.490Z,24.38
2022-09-11T14:18:05.178Z,23.90
2022-09-11T14:20:33.132Z,23.57
2022-09-11T14:23:05.841Z,23.47
2022-09-11T14:25:34.213Z,23.72
2022-09-11T14:28:02.412Z,23.89
2022-09-11T14:30:37.669Z,23.72
2022-09-11T14:33:16.705Z,23.66
2022-09-11T14:35:46.945Z,23.74
2022-09-11T14:38:16.244Z,23.92
2022-09-11T14:40:56.699Z,24.00
2022-09-11T14:43:31.378Z,23.74
2022-09-11T14:46:00.163Z,23.53
2022-09-11T14:48:29.012Z,23.51
2022-09-11T14:50:56.130Z,23.46
2022-09-11T14:53:34.565Z,23.59
2022-09-11T14:56:02.857Z,23.55
2022-09-11T14:58:30.779Z,23.67
2022-09-11T15:00:57.816Z,23.76
2022-09-11T15:03:25.759Z,23.83
2022-09-11T15:05:58.728Z,23.79
2022-09-11T15:08:25.853Z,23.72
2022-09-11T15:10:53.825Z,23.62
2022-09-11T15:13:21.829Z,23.55
2022-09-11T15:15:48.753Z,23.48
2022-09-11T15:18:15.618Z,23.47
2022-09-11T15:20:42.400Z,23.44
2022-09-11T15:23:09.306Z,23.36
2022-09-11T15:25:36.142Z,23.24
2022-09-11T15:28:03.185Z,23.16
2022-09-11T15:30:30.127Z,23.10
2022-09-11T15:32:56.978Z,22.96
2022-09-11T15:35:23.872Z,22.95
2022-09-11T15:37:51.058Z,22.76
2022-09-11T15:40:19.000Z,22.68
2022-09-11T15:42:48.962Z,22.69
2022-09-11T15:45:17.122Z,22.71
2022-09-11T15:47:44.708Z,22.71
2022-09-11T15:50:11.964Z,22.69
2022-09-11T15:52:40.993Z,22.64
2022-09-11T15:55:10.085Z,22.49
2022-09-11T15:57:37.020Z,22.43
2022-09-11T16:00:04.910Z,22.31
2022-09-11T16:02:31.697Z,22.26
2022-09-11T16:05:00.144Z,22.21
2022-09-11T16:07:26.856Z,22.20
2022-09-11T16:09:54.532Z,22.20
2022-09-11T16:12:21.377Z,22.10
2022-09-11T16:14:48.407Z,22.06
2022-09-11T16:17:19.510Z,22.03
2022-09-11T16:19:46.776Z,21.99
2022-09-11T16:22:13.621Z,21.91
2022-09-11T16:24:40.458Z,21.79
2022-09-11T16:27:10.044Z,21.71
2022-09-11T16:30:09.418Z,21.64
2022-09-11T16:32:37.615Z,21.52
2022-09-11T16:35:05.040Z,21.44
2022-09-11T16:37:34.049Z,21.39
2022-09-11T16:40:02.545Z,21.33
2022-09-11T16:42:29.806Z,21.26
2022-09-11T16:44:56.607Z,21.19
2022-09-11T16:47:23.781Z,21.10
2022-09-11T16:50:06.310Z,21.01
2022-09-11T16:52:34.937Z,20.93
2022-09-11T16:55:02.081Z,20.89
2022-09-11T16:57:29.238Z,20.84
2022-09-11T16:59:56.104Z,20.81
2022-09-11T17:02:22.828Z,20.74
2022-09-11T17:04:49.767Z,20.69
2022-09-11T17:07:16.560Z,20.63
2022-09-11T17:09:44.006Z,20.54
2022-09-11T17:12:11.726Z,20.47
2022-09-11T17:14:38.968Z,20.41
2022-09-11T17:17:05.981Z,20.31
2022-09-11T17:19:32.826Z,20.24
2022-09-11T17:22:00.227Z,20.19
2022-09-11T17:24:27.419Z,20.11
2022-09-11T17:26:56.058Z,20.03
2022-09-11T17:29:23.003Z,19.99
2022-09-11T17:32:01.067Z,19.92
2022-09-11T17:34:37.399Z,19.85
2022-09-11T17:37:04.277Z,19.78
2022-09-11T17:39:31.155Z,19.72
2022-09-11T17:41:58.034Z,19.66
2022-09-11T17:44:25.005Z,19.58
2022-09-11T17:46:52.321Z,19.48
2022-09-11T17:49:19.332Z,19.40
2022-09-11T17:51:46.208Z,19.32
2022-09-11T17:54:13.083Z,19.24
2022-09-11T17:56:40.091Z,19.16
2022-09-11T17:59:06.957Z,19.09
2022-09-11T18:01:33.791Z,19.00
2022-09-11T18:04:00.734Z,18.91
2022-09-11T18:06:30.284Z,18.84
2022-09-11T18:09:04.674Z,18.75
2022-09-11T18:11:32.327Z,18.67
2022-09-11T18:14:00.457Z,18.61
2022-09-11T18:16:27.673Z,18.54
2022-09-11T18:18:55.781Z,18.46
2022-09-11T18:21:23.175Z,18.40
2022-09-11T18:23:49.987Z,18.34
2022-09-11T18:26:29.787Z,18.26
2022-09-11T18:29:02.351Z,18.20
2022-09-11T18:31:31.446Z,18.14
2022-09-11T18:34:00.752Z,18.07
2022-09-11T18:36:29.696Z,18.02
2022-09-11T18:39:00.143Z,17.98
2022-09-11T18:41:28.440Z,17.92
2022-09-11T18:43:56.991Z,17.85
2022-09-11T18:46:25.517Z,17.80
2022-09-11T18:48:52.869Z,17.75
2022-09-11T18:51:20.314Z,17.69
2022-09-11T18:53:48.910Z,17.62
2022-09-11T18:56:15.786Z,17.58
2022-09-11T18:58:42.650Z,17.53
2022-09-11T19:01:11.794Z,17.47
2022-09-11T19:03:42.371Z,17.42
2022-09-11T19:06:11.916Z,17.36
2022-09-11T19:08:40.569Z,17.29
2022-09-11T19:11:09.300Z,17.22
2022-09-11T19:13:37.241Z,17.15
2022-09-11T19:16:05.339Z,17.09
2022-09-11T19:18:33.672Z,17.05
2022-09-11T19:21:04.108Z,17.00
2022-09-11T19:23:37.548Z,16.95
2022-09-11T19:26:06.350Z,16.91
2022-09-11T19:28:37.924Z,16.87
2022-09-11T19:31:06.410Z,16.83
2022-09-11T19:33:35.324Z,16.80
2022-09-11T19:36:04.887Z,16.74
2022-09-11T19:38:33.065Z,16.67
2022-09-11T19:41:02.967Z,16.63
2022-09-11T19:43:31.380Z,16.60
2022-09-11T19:46:11.791Z,16.55
2022-09-11T19:48:39.835Z,16.52
2022-09-11T19:51:13.341Z,16.47
2022-09-11T19:53:41.963Z,16.45
2022-09-11T19:56:11.537Z,16.38
2022-09-11T19:58:39.356Z,16.35
2022-09-11T20:01:11.664Z,16.30
2022-09-11T20:03:40.172Z,16.27
2022-09-11T20:06:08.591Z,16.23
2022-09-11T20:08:37.172Z,16.18
2022-09-11T20:11:07.354Z,16.14
2022-09-11T20:13:35.421Z,16.10
2022-09-11T20:16:07.311Z,16.06
2022-09-11T20:18:34.991Z,16.04
2022-09-11T20:21:06.604Z,15.98
2022-09-11T20:23:35.243Z,15.93
2022-09-11T20:26:19.116Z,15.87
2022-09-11T20:28:48.525Z,15.84
2022-09-11T20:31:20.994Z,15.81
2022-09-11T20:33:49.686Z,15.77
2022-09-11T20:36:18.383Z,15.74
2022-09-11T20:38:50.392Z,15.70
2022-09-11T20:41:17.392Z,15.65
2022-09-11T20:43:44.712Z,15.62
2022-09-11T20:46:11.741Z,15.58
2022-09-11T20:48:38.683Z,15.54
2022-09-11T20:51:11.394Z,15.53
2022-09-11T20:53:41.894Z,15.51
2022-09-11T20:56:11.249Z,15.46
2022-09-11T20:58:39.012Z,15.37
2022-09-11T21:01:07.448Z,15.35
2022-09-11T21:03:34.748Z,15.34
2022-09-11T21:06:08.919Z,15.29
2022-09-11T21:08:36.224Z,15.27
2022-09-11T21:11:05.276Z,15.25
2022-09-11T21:13:36.928Z,15.22
2022-09-11T21:16:09.369Z,15.18
2022-09-11T21:18:36.439Z,15.16
2022-09-11T21:21:03.908Z,15.11
2022-09-11T21:23:32.379Z,15.09
2022-09-11T21:25:59.548Z,15.01
2022-09-11T21:28:26.541Z,14.96
2022-09-11T21:30:53.521Z,14.94
2022-09-11T21:33:20.376Z,14.93
2022-09-11T21:35:55.053Z,14.92
2022-09-11T21:38:28.811Z,14.87
2022-09-11T21:40:57.806Z,14.84
2022-09-11T21:43:25.058Z,14.81
2022-09-11T21:45:52.105Z,14.77
2022-09-11T21:48:19.059Z,14.73
2022-09-11T21:50:46.100Z,14.71
2022-09-11T21:53:13.096Z,14.69
2022-09-11T21:55:45.526Z,14.67
2022-09-11T21:58:19.534Z,14.63
2022-09-11T22:00:51.358Z,14.57
2022-09-11T22:03:19.419Z,14.58
2022-09-11T22:05:49.332Z,14.56
2022-09-11T22:08:18.737Z,14.54
2022-09-11T22:10:48.450Z,14.51
2022-09-11T22:13:17.078Z,14.48
2022-09-11T22:15:46.025Z,14.45
2022-09-11T22:18:13.529Z,14.43
2022-09-11T22:20:41.814Z,14.40
2022-09-11T22:23:14.962Z,14.36
2022-09-11T22:25:42.153Z,14.35
2022-09-11T22:28:09.564Z,14.32
2022-09-11T22:30:40.563Z,14.27
2022-09-11T22:33:07.605Z,14.25
2022-09-11T22:35:35.122Z,14.22
2022-09-11T22:38:02.219Z,14.15
2022-09-11T22:40:29.200Z,14.13
2022-09-11T22:42:56.150Z,14.13
2022-09-11T22:45:22.895Z,14.13
2022-09-11T22:47:50.042Z,14.11
2022-09-11T22:50:17.403Z,14.07
2022-09-11T22:52:44.602Z,14.05
2022-09-11T22:55:11.657Z,14.00
2022-09-11T22:57:39.161Z,13.99
2022-09-11T23:00:08.481Z,13.96
2022-09-11T23:02:36.338Z,13.93
2022-09-11T23:05:23.874Z,13.90
2022-09-11T23:07:51.995Z,13.88
2022-09-11T23:10:23.774Z,13.85
2022-09-11T23:12:53.961Z,13.84
2022-09-11T23:15:21.829Z,13.81
2022-09-11T23:17:48.683Z,13.79
2022-09-11T23:20:16.345Z,13.76
2022-09-11T23:22:43.275Z,13.71
2022-09-11T23:25:11.320Z,13.69
2022-09-11T23:27:38.252Z,13.68
2022-09-11T23:30:05.760Z,13.65
2022-09-11T23:32:32.862Z,13.63
2022-09-11T23:34:59.808Z,13.59
2022-09-11T23:37:26.905Z,13.55
2022-09-11T23:39:53.911Z,13.51
2022-09-11T23:42:21.105Z,13.49
2022-09-11T23:44:47.854Z,13.47
2022-09-11T23:47:14.954Z,13.45
2022-09-11T23:49:43.429Z,13.42
2022-09-11T23:52:10.321Z,13.37
2022-09-11T23:54:37.584Z,13.33
2022-09-11T23:57:05.807Z,13.32
2022-09-11T23:59:36.003Z,13.30
